Main page
METAR-TAF:

METAR-TAF

Airports :

Zakynthos, Greece

Zakynthos International Airport

latitude: 37-45N, longitude: 020-53E, elevation: 3 m

Current weather observation

The report was made 5 hours and 23 minutes ago, at 17:50 UTC
Wind 5 kt from the Southeast
Temperature 11°C
Humidity 94%
Pressure 1017 hPa
Visibility 10 km or more
Scattered clouds at a height of 2000 ft
Scattered clouds at a height of 7000 ft

METAR: LGZA 191750Z 13005KT 9999 SCT020 SCT070 11/10 Q1017

Time: 01:13 (23:13 UTC)

Forecast

The report was made 3 hours and 13 minutes ago, at 20:00 UTC
Forecast valid from 19 at 21 UTC to 20 at 06 UTC
Wind 5 kt from variable directions
Visibility 10 km or more
Scattered clouds at a height of 2000 ft
Probability 30% :
Temporary
from 20 at 03 UTC to 20 at 06 UTC
Visibility: 5000 m
Scattered clouds at a height of 1000 ft
Broken clouds at a height of 2000 ft
rain

TAF: LGZA 192000Z 1921/2006 VRB05KT 9999 SCT020 PROB30 TEMPO 2003/2006 5000 RA SCT010 BKN020

Weather observations and forecasts of more than 4000 airports (METAR and TAF reports).

The available stations are represented by yellow and red dots on the map.

Hover mouse over dot to see the name of the station.

Then click to see weather observations and forecasts.

To change the map : click on the green buttons with a black cross to zoom in, on the green button with a dash to zoom out, or on the green arrows for adjacent maps.


METAR-TAF: